Time;durP1;ratioP1;P1;durP2;ratioP2;P2;SDS_P1;SDS_P2;PMS_P1;PMS_P2;Temp;Humidity;BMP_temperature;BMP_pressure;BME280_temperature;BME280_humidity;BME280_pressure;Samples;Min_cycle;Max_cycle;Signal;HPM_P1;HPM_P2
2023/11/13 00:01:43;;;;;;;54.97;7.90;;;;;;;;;;5037153;28;20072;-44
2023/11/13 00:04:10;;;;;;;52.10;9.00;;;;;;;;;;5050247;28;20037;-38
2023/11/13 00:06:37;;;;;;;50.10;8.20;;;;;;;;;;5050435;28;20034;-38
2023/11/13 00:09:04;;;;;;;65.55;10.63;;;;;;;;;;5033142;28;20036;-41
2023/11/13 00:11:31;;;;;;;66.10;9.88;;;;;;;;;;5014109;28;20443;-41
2023/11/13 00:13:59;;;;;;;59.55;9.90;;;;;;;;;;5031344;28;20025;-39
2023/11/13 00:32:16;;;;;;;55.38;10.10;;;;;;;;;;5034053;28;20498;-40
2023/11/13 00:34:43;;;;;;;61.08;10.68;;;;;;;;;;5035450;28;20072;-40
2023/11/13 00:37:10;;;;;;;69.57;12.88;;;;;;;;;;5041533;28;20479;-41
2023/11/13 00:39:37;;;;;;;52.83;11.20;;;;;;;;;;5049327;28;20032;-40
2023/11/13 00:42:04;;;;;;;60.28;13.80;;;;;;;;;;5050577;28;20028;-40
2023/11/13 00:44:31;;;;;;;52.55;12.07;;;;;;;;;;5054856;28;20478;-44
2023/11/13 00:46:58;;;;;;;51.55;12.07;;;;;;;;;;5045464;28;20029;-40
2023/11/13 00:49:25;;;;;;;56.47;13.30;;;;;;;;;;5041986;28;20028;-42
2023/11/13 00:51:53;;;;;;;53.42;12.90;;;;;;;;;;5054634;28;20037;-40
2023/11/13 00:54:20;;;;;;;71.85;13.38;;;;;;;;;;5038298;28;20044;-42
2023/11/13 00:56:47;;;;;;;56.60;13.00;;;;;;;;;;5038401;28;20037;-40
2023/11/13 00:59:14;;;;;;;47.45;12.70;;;;;;;;;;5037724;28;21102;-42
2023/11/13 01:01:41;;;;;;;51.33;13.60;;;;;;;;;;5037793;28;20108;-42
2023/11/13 01:04:08;;;;;;;51.10;11.88;;;;;;;;;;5038018;28;20037;-41
2023/11/13 01:06:35;;;;;;;51.13;12.35;;;;;;;;;;5035745;28;20368;-42
2023/11/13 01:09:03;;;;;;;47.47;11.85;;;;;;;;;;5054036;28;20032;-41
2023/11/13 01:11:30;;;;;;;51.58;11.60;;;;;;;;;;5054251;28;20037;-40
2023/11/13 01:13:57;;;;;;;50.05;12.05;;;;;;;;;;5035663;28;20096;-44
2023/11/13 01:16:24;;;;;;;45.58;12.07;;;;;;;;;;5016438;28;20824;-41
2023/11/13 01:18:53;;;;;;;53.05;11.77;;;;;;;;;;5052363;28;20111;-40
2023/11/13 01:21:21;;;;;;;49.50;11.73;;;;;;;;;;5045307;28;20044;-41
2023/11/13 01:23:48;;;;;;;46.50;10.98;;;;;;;;;;5042798;28;20498;-40
2023/11/13 01:26:15;;;;;;;48.10;11.27;;;;;;;;;;5038045;28;20029;-41
2023/11/13 01:28:42;;;;;;;47.10;11.63;;;;;;;;;;5041475;28;20068;-40
2023/11/13 01:31:10;;;;;;;44.50;11.70;;;;;;;;;;5034917;28;20025;-41
2023/11/13 01:33:37;;;;;;;48.58;11.73;;;;;;;;;;5034372;28;20034;-40
2023/11/13 01:36:05;;;;;;;38.92;10.45;;;;;;;;;;5015656;28;20048;-43
2023/11/13 01:38:33;;;;;;;45.67;11.15;;;;;;;;;;5032200;28;20037;-40
2023/11/13 01:41:00;;;;;;;50.58;11.48;;;;;;;;;;5042500;28;20047;-40
2023/11/13 01:43:27;;;;;;;47.42;10.90;;;;;;;;;;5024550;28;20031;-40
2023/11/13 01:45:56;;;;;;;46.03;10.52;;;;;;;;;;5023561;28;20057;-40
2023/11/13 01:48:24;;;;;;;45.50;10.35;;;;;;;;;;5031099;28;20049;-41
2023/11/13 01:50:52;;;;;;;45.15;10.57;;;;;;;;;;5049622;28;20025;-40
2023/11/13 01:53:24;;;;;;;53.67;10.85;;;;;;;;;;5045958;28;20025;-42
2023/11/13 01:55:52;;;;;;;49.77;10.70;;;;;;;;;;5033581;28;20042;-41
2023/11/13 01:58:19;;;;;;;45.72;11.07;;;;;;;;;;5048371;28;20065;-41
2023/11/13 02:00:47;;;;;;;41.50;9.93;;;;;;;;;;5053418;28;20098;-42
2023/11/13 02:03:14;;;;;;;42.15;10.50;;;;;;;;;;5053025;28;20040;-42
2023/11/13 02:05:42;;;;;;;42.05;10.70;;;;;;;;;;5052687;28;20049;-41
2023/11/13 02:08:09;;;;;;;40.35;10.52;;;;;;;;;;5046060;28;20033;-40
2023/11/13 02:10:36;;;;;;;47.50;10.60;;;;;;;;;;5046724;28;20036;-40
2023/11/13 02:13:06;;;;;;;40.35;9.15;;;;;;;;;;5052773;28;20025;-41
2023/11/13 02:15:33;;;;;;;37.38;9.68;;;;;;;;;;5051188;28;20044;-40
2023/11/13 02:18:00;;;;;;;46.30;10.65;;;;;;;;;;5036348;28;21767;-40
2023/11/13 02:20:28;;;;;;;32.47;8.95;;;;;;;;;;5043748;28;20025;-42
2023/11/13 02:22:55;;;;;;;36.42;9.43;;;;;;;;;;5046196;28;20057;-40
2023/11/13 02:25:25;;;;;;;36.15;10.25;;;;;;;;;;5052672;28;20028;-42
2023/11/13 02:27:54;;;;;;;40.63;9.73;;;;;;;;;;5049460;28;20025;-39
2023/11/13 02:30:21;;;;;;;36.42;9.10;;;;;;;;;;5052615;28;20065;-39
2023/11/13 02:32:49;;;;;;;37.58;9.30;;;;;;;;;;5052800;28;20368;-40
2023/11/13 02:35:16;;;;;;;36.20;9.02;;;;;;;;;;5052430;28;20923;-40
2023/11/13 02:37:43;;;;;;;39.80;9.43;;;;;;;;;;5050767;28;20494;-39
2023/11/13 02:40:11;;;;;;;33.65;9.35;;;;;;;;;;5039710;28;20075;-39
2023/11/13 02:42:41;;;;;;;36.53;9.10;;;;;;;;;;5037442;28;20068;-40
2023/11/13 02:45:09;;;;;;;39.45;9.73;;;;;;;;;;5038311;28;20029;-40
2023/11/13 02:47:36;;;;;;;33.70;8.98;;;;;;;;;;5050738;28;20718;-40
2023/11/13 02:50:04;;;;;;;27.20;8.25;;;;;;;;;;5048044;28;20021;-39
2023/11/13 02:52:31;;;;;;;29.65;8.82;;;;;;;;;;5050061;28;20383;-40
2023/11/13 02:54:58;;;;;;;34.95;8.63;;;;;;;;;;5051081;28;20041;-40
2023/11/13 02:57:25;;;;;;;37.40;9.50;;;;;;;;;;5051256;28;20029;-41
2023/11/13 02:59:52;;;;;;;31.13;8.60;;;;;;;;;;5050988;28;20032;-43
2023/11/13 03:02:19;;;;;;;27.70;8.55;;;;;;;;;;5049593;28;20041;-39
2023/11/13 03:04:46;;;;;;;27.55;8.05;;;;;;;;;;5050461;28;20095;-39
2023/11/13 03:07:13;;;;;;;29.30;8.95;;;;;;;;;;5051123;28;20112;-40
2023/11/13 03:09:40;;;;;;;28.83;8.07;;;;;;;;;;5051555;28;20035;-39
2023/11/13 03:12:07;;;;;;;26.20;7.93;;;;;;;;;;5033848;28;20441;-40
2023/11/13 03:14:34;;;;;;;26.23;7.72;;;;;;;;;;5051373;28;20033;-39
2023/11/13 03:17:01;;;;;;;24.20;7.72;;;;;;;;;;5051515;28;20045;-45
2023/11/13 03:19:28;;;;;;;29.67;7.60;;;;;;;;;;5049037;28;20025;-39
2023/11/13 03:21:55;;;;;;;27.55;7.28;;;;;;;;;;5051355;28;20033;-40
2023/11/13 03:24:22;;;;;;;24.80;6.70;;;;;;;;;;5048198;28;20020;-39
2023/11/13 03:26:49;;;;;;;27.70;7.97;;;;;;;;;;5051178;28;20029;-41
2023/11/13 03:29:16;;;;;;;22.70;6.65;;;;;;;;;;5048219;28;20033;-39
2023/11/13 03:31:43;;;;;;;24.08;7.10;;;;;;;;;;5051290;28;20120;-42
2023/11/13 03:34:10;;;;;;;24.05;7.45;;;;;;;;;;5051133;28;20036;-39
2023/11/13 03:36:37;;;;;;;29.30;7.22;;;;;;;;;;5048258;28;20103;-39
2023/11/13 03:39:04;;;;;;;25.08;7.25;;;;;;;;;;5051128;28;20071;-39
2023/11/13 03:41:32;;;;;;;21.35;6.90;;;;;;;;;;5051177;28;20040;-39
2023/11/13 03:44:00;;;;;;;24.92;6.70;;;;;;;;;;5051137;28;20418;-40
2023/11/13 03:46:27;;;;;;;22.05;6.72;;;;;;;;;;5051074;28;20453;-39
2023/11/13 03:48:54;;;;;;;22.95;6.43;;;;;;;;;;5050866;28;20074;-39
2023/11/13 03:51:24;;;;;;;21.15;6.53;;;;;;;;;;5051763;28;20029;-41
2023/11/13 03:53:52;;;;;;;25.95;6.95;;;;;;;;;;5046706;28;20105;-39
2023/11/13 03:56:23;;;;;;;23.30;6.65;;;;;;;;;;5050407;28;20045;-40
2023/11/13 03:58:50;;;;;;;21.97;6.70;;;;;;;;;;5050859;28;20032;-39
2023/11/13 04:01:19;;;;;;;20.55;6.15;;;;;;;;;;5050910;28;20027;-40
2023/11/13 04:03:46;;;;;;;17.33;6.13;;;;;;;;;;5051050;28;20025;-40
2023/11/13 04:06:13;;;;;;;16.30;5.80;;;;;;;;;;5050980;28;20086;-40
2023/11/13 04:08:40;;;;;;;19.67;6.03;;;;;;;;;;5031316;28;20391;-39
2023/11/13 04:11:07;;;;;;;18.80;5.78;;;;;;;;;;5031570;28;20119;-39
2023/11/13 04:13:34;;;;;;;17.80;5.45;;;;;;;;;;5031592;28;20487;-39
2023/11/13 04:16:03;;;;;;;17.25;5.65;;;;;;;;;;5031777;28;20037;-39
2023/11/13 04:18:33;;;;;;;15.18;5.30;;;;;;;;;;5037949;28;20037;-39
2023/11/13 04:21:00;;;;;;;15.30;5.28;;;;;;;;;;5038054;28;20037;-41
2023/11/13 04:23:27;;;;;;;14.35;5.13;;;;;;;;;;5038173;28;20032;-39
2023/11/13 04:25:54;;;;;;;18.27;5.72;;;;;;;;;;5038092;28;20040;-42
2023/11/13 04:28:22;;;;;;;15.13;5.15;;;;;;;;;;5037792;28;20033;-39
2023/11/13 04:30:49;;;;;;;14.32;4.72;;;;;;;;;;5038036;28;20030;-39
2023/11/13 04:33:16;;;;;;;16.17;5.18;;;;;;;;;;5037999;28;20030;-39
2023/11/13 04:35:43;;;;;;;15.15;5.28;;;;;;;;;;5037950;28;20034;-39
2023/11/13 04:38:10;;;;;;;17.60;5.75;;;;;;;;;;5036479;28;20030;-41
2023/11/13 04:40:37;;;;;;;16.77;5.57;;;;;;;;;;5037922;28;20026;-40
2023/11/13 04:43:04;;;;;;;20.13;5.63;;;;;;;;;;5037637;28;20029;-39
2023/11/13 04:45:30;;;;;;;17.02;5.05;;;;;;;;;;5037863;28;20440;-39
2023/11/13 04:47:57;;;;;;;15.23;5.10;;;;;;;;;;5037734;28;20057;-38
2023/11/13 04:50:24;;;;;;;15.95;5.72;;;;;;;;;;5037855;28;20483;-40
2023/11/13 04:52:51;;;;;;;14.07;4.25;;;;;;;;;;5037842;28;20403;-39
2023/11/13 04:55:18;;;;;;;11.65;4.57;;;;;;;;;;5037657;28;20483;-39
2023/11/13 04:57:45;;;;;;;11.73;4.40;;;;;;;;;;5037780;28;20518;-40
2023/11/13 05:00:13;;;;;;;11.82;4.35;;;;;;;;;;5037193;28;20609;-39
2023/11/13 05:02:41;;;;;;;12.32;4.20;;;;;;;;;;5037733;28;20068;-39
2023/11/13 05:05:09;;;;;;;13.18;4.38;;;;;;;;;;5037394;28;20404;-39
2023/11/13 05:07:36;;;;;;;11.55;4.75;;;;;;;;;;5037569;28;20041;-39
2023/11/13 05:10:03;;;;;;;11.02;4.00;;;;;;;;;;5037518;28;20071;-39
2023/11/13 05:12:31;;;;;;;12.38;4.10;;;;;;;;;;5037618;28;20028;-41
2023/11/13 05:14:58;;;;;;;11.10;4.55;;;;;;;;;;5037327;28;20048;-39
2023/11/13 05:17:25;;;;;;;13.43;3.95;;;;;;;;;;5037612;28;20044;-42
2023/11/13 05:19:52;;;;;;;11.38;3.88;;;;;;;;;;5037368;28;20406;-41
2023/11/13 05:22:19;;;;;;;12.18;3.80;;;;;;;;;;5037614;28;20027;-41
2023/11/13 05:24:46;;;;;;;13.10;4.18;;;;;;;;;;5037510;28;20402;-39
2023/11/13 05:27:13;;;;;;;10.60;3.85;;;;;;;;;;5037498;28;20476;-39
2023/11/13 05:29:41;;;;;;;9.18;3.53;;;;;;;;;;5033755;28;20033;-41
2023/11/13 05:32:08;;;;;;;8.10;3.38;;;;;;;;;;5034195;28;20026;-39
2023/11/13 05:34:35;;;;;;;10.18;3.70;;;;;;;;;;5034186;28;20038;-39
2023/11/13 05:37:03;;;;;;;12.25;3.90;;;;;;;;;;5034270;28;20037;-39
2023/11/13 05:39:30;;;;;;;8.73;3.40;;;;;;;;;;5034076;28;20079;-40
2023/11/13 05:41:57;;;;;;;10.27;4.03;;;;;;;;;;5034242;28;20057;-43
2023/11/13 05:44:24;;;;;;;7.50;3.22;;;;;;;;;;5034091;28;20029;-39
2023/11/13 05:46:51;;;;;;;7.70;3.53;;;;;;;;;;5034058;28;20361;-39
2023/11/13 05:49:18;;;;;;;8.32;3.50;;;;;;;;;;5033784;28;20033;-41
2023/11/13 05:51:46;;;;;;;9.95;3.38;;;;;;;;;;5033993;28;20053;-39
2023/11/13 05:54:13;;;;;;;7.60;3.22;;;;;;;;;;5033788;28;20061;-40
2023/11/13 05:56:41;;;;;;;8.25;3.20;;;;;;;;;;5033844;28;20462;-40
2023/11/13 05:59:09;;;;;;;9.43;3.47;;;;;;;;;;5033831;28;20498;-40
2023/11/13 06:01:36;;;;;;;10.07;3.60;;;;;;;;;;5038286;28;20045;-40
2023/11/13 06:04:03;;;;;;;10.65;3.63;;;;;;;;;;5053583;28;20037;-41
2023/11/13 06:06:30;;;;;;;7.90;3.53;;;;;;;;;;5037706;28;20490;-40
2023/11/13 06:08:57;;;;;;;10.68;3.65;;;;;;;;;;5033654;28;20021;-40
2023/11/13 06:11:24;;;;;;;9.52;3.15;;;;;;;;;;5033586;28;20052;-40
2023/11/13 06:13:51;;;;;;;8.25;3.25;;;;;;;;;;5033550;28;20449;-40
2023/11/13 06:16:18;;;;;;;7.90;3.33;;;;;;;;;;5033349;28;20095;-40
2023/11/13 06:18:52;;;;;;;6.65;2.78;;;;;;;;;;5033371;28;20021;-40
2023/11/13 06:21:21;;;;;;;12.27;3.47;;;;;;;;;;5033256;28;20126;-40
2023/11/13 06:23:49;;;;;;;7.70;3.33;;;;;;;;;;5033332;28;20505;-40
2023/11/13 06:26:17;;;;;;;7.05;2.97;;;;;;;;;;5033304;28;20034;-40
2023/11/13 06:28:43;;;;;;;6.63;3.05;;;;;;;;;;5033182;28;20039;-40
2023/11/13 06:31:10;;;;;;;5.50;2.78;;;;;;;;;;5033286;28;20030;-40
2023/11/13 06:33:38;;;;;;;6.40;2.75;;;;;;;;;;5033198;28;20036;-40
2023/11/13 06:36:09;;;;;;;8.05;2.97;;;;;;;;;;5033030;28;20037;-44
2023/11/13 06:38:36;;;;;;;8.45;3.28;;;;;;;;;;5032642;28;20041;-39
2023/11/13 06:41:04;;;;;;;6.72;2.72;;;;;;;;;;5031975;28;20529;-40
2023/11/13 06:43:31;;;;;;;7.90;2.65;;;;;;;;;;5041145;28;20557;-40
2023/11/13 06:46:03;;;;;;;10.40;3.80;;;;;;;;;;5052919;28;20028;-40
2023/11/13 06:48:30;;;;;;;4.83;2.40;;;;;;;;;;5051930;28;20029;-39
2023/11/13 06:50:56;;;;;;;5.60;2.60;;;;;;;;;;5052155;28;20497;-40
2023/11/13 06:53:25;;;;;;;5.60;2.45;;;;;;;;;;5052652;28;20724;-39
2023/11/13 06:55:53;;;;;;;6.68;2.75;;;;;;;;;;5045450;28;20056;-41
2023/11/13 06:58:22;;;;;;;5.45;2.50;;;;;;;;;;5032545;28;20092;-42
2023/11/13 07:00:50;;;;;;;5.82;2.60;;;;;;;;;;5032535;28;20037;-40
2023/11/13 07:03:18;;;;;;;6.50;2.67;;;;;;;;;;5032481;28;20435;-40
2023/11/13 07:05:45;;;;;;;4.90;2.30;;;;;;;;;;5032319;28;20503;-39
2023/11/13 07:08:13;;;;;;;6.63;2.90;;;;;;;;;;5032504;28;20065;-39
2023/11/13 07:10:43;;;;;;;5.45;2.50;;;;;;;;;;5032500;28;20101;-39
2023/11/13 07:13:11;;;;;;;4.90;2.40;;;;;;;;;;5032497;28;20036;-40
2023/11/13 07:15:38;;;;;;;9.85;2.65;;;;;;;;;;5032373;28;20413;-39
2023/11/13 07:18:06;;;;;;;5.70;2.38;;;;;;;;;;5032309;28;20029;-39
2023/11/13 07:20:34;;;;;;;6.10;2.45;;;;;;;;;;5032116;28;20411;-40
2023/11/13 07:23:02;;;;;;;5.75;2.13;;;;;;;;;;5032232;28;20045;-41
2023/11/13 07:25:29;;;;;;;3.70;1.67;;;;;;;;;;5032240;28;20033;-40
2023/11/13 07:27:56;;;;;;;5.07;1.90;;;;;;;;;;5036173;28;20086;-39
2023/11/13 07:30:23;;;;;;;8.27;2.20;;;;;;;;;;5052115;28;20108;-39
2023/11/13 07:32:51;;;;;;;5.80;2.60;;;;;;;;;;5052085;28;20070;-39
2023/11/13 07:35:18;;;;;;;6.75;2.30;;;;;;;;;;5051955;28;20044;-39
2023/11/13 07:37:45;;;;;;;5.25;2.05;;;;;;;;;;5041669;28;20094;-43
2023/11/13 07:40:14;;;;;;;4.05;2.10;;;;;;;;;;5031959;28;20029;-40
2023/11/13 07:42:41;;;;;;;4.57;2.00;;;;;;;;;;5031968;28;20061;-41
2023/11/13 07:45:10;;;;;;;4.28;2.00;;;;;;;;;;5031944;28;20494;-40
2023/11/13 07:47:39;;;;;;;6.82;2.25;;;;;;;;;;5031800;28;20372;-40
2023/11/13 07:50:13;;;;;;;4.63;2.10;;;;;;;;;;5031806;28;20041;-40
2023/11/13 07:52:43;;;;;;;4.85;1.80;;;;;;;;;;5031526;28;20087;-41
2023/11/13 07:55:12;;;;;;;4.90;2.00;;;;;;;;;;5031462;28;20562;-39
2023/11/13 07:57:39;;;;;;;5.57;2.03;;;;;;;;;;5031570;28;20064;-40
2023/11/13 08:00:10;;;;;;;4.55;1.67;;;;;;;;;;5031852;28;20030;-39
2023/11/13 08:02:42;;;;;;;8.00;1.95;;;;;;;;;;5031633;28;20105;-40
2023/11/13 08:05:12;;;;;;;4.45;1.75;;;;;;;;;;5031460;28;20100;-40
2023/11/13 08:07:40;;;;;;;3.80;1.90;;;;;;;;;;5031587;28;20481;-40
2023/11/13 08:10:14;;;;;;;6.13;2.15;;;;;;;;;;5031094;28;20029;-39
2023/11/13 08:12:43;;;;;;;5.40;2.00;;;;;;;;;;5031710;28;20033;-40
2023/11/13 08:15:14;;;;;;;6.55;2.03;;;;;;;;;;5031509;28;20037;-39
2023/11/13 08:17:44;;;;;;;5.05;1.65;;;;;;;;;;5031509;28;20407;-39
2023/11/13 08:20:15;;;;;;;3.92;1.40;;;;;;;;;;5031728;28;20394;-40
2023/11/13 08:22:45;;;;;;;3.20;1.58;;;;;;;;;;5031629;28;20034;-40
2023/11/13 08:25:12;;;;;;;3.85;1.67;;;;;;;;;;5031530;28;20049;-41
2023/11/13 08:27:42;;;;;;;2.97;1.80;;;;;;;;;;5031190;28;20072;-40
2023/11/13 08:30:13;;;;;;;2.78;1.60;;;;;;;;;;5031467;28;20523;-41
2023/11/13 08:32:41;;;;;;;4.13;1.83;;;;;;;;;;5031448;28;20025;-40
2023/11/13 08:35:12;;;;;;;3.58;1.60;;;;;;;;;;5031366;28;20025;-41
2023/11/13 08:37:48;;;;;;;3.42;1.70;;;;;;;;;;5031106;28;20144;-43
2023/11/13 08:40:17;;;;;;;4.32;1.42;;;;;;;;;;5031339;28;20450;-40
2023/11/13 08:42:44;;;;;;;3.75;1.80;;;;;;;;;;5031275;28;20065;-40
2023/11/13 08:45:21;;;;;;;3.42;1.67;;;;;;;;;;5031260;28;20026;-40
2023/11/13 08:47:49;;;;;;;4.32;1.85;;;;;;;;;;5031154;28;20026;-39
2023/11/13 08:50:16;;;;;;;2.97;1.50;;;;;;;;;;5031211;28;20030;-40
2023/11/13 08:52:44;;;;;;;4.53;1.63;;;;;;;;;;5031316;28;20482;-40
2023/11/13 08:55:12;;;;;;;3.47;1.35;;;;;;;;;;5031232;28;20033;-41
2023/11/13 08:57:42;;;;;;;2.20;1.20;;;;;;;;;;5030994;28;20037;-39
2023/11/13 09:00:28;;;;;;;2.72;1.42;;;;;;;;;;5030996;28;20530;-40
2023/11/13 09:02:57;;;;;;;2.83;1.50;;;;;;;;;;5029870;28;20448;-41
2023/11/13 09:05:25;;;;;;;3.38;1.40;;;;;;;;;;5034760;28;20046;-40
2023/11/13 09:07:55;;;;;;;3.17;1.65;;;;;;;;;;5034759;28;20075;-40
2023/11/13 09:10:26;;;;;;;4.38;1.55;;;;;;;;;;5034843;28;20323;-41
2023/11/13 09:13:02;;;;;;;2.45;1.45;;;;;;;;;;5034826;28;20029;-42
2023/11/13 09:15:32;;;;;;;4.80;1.70;;;;;;;;;;5034394;28;20033;-39
2023/11/13 09:18:05;;;;;;;3.70;1.38;;;;;;;;;;5034565;28;20029;-40
2023/11/13 09:20:32;;;;;;;4.97;1.63;;;;;;;;;;5034653;28;20133;-40
2023/11/13 09:23:00;;;;;;;3.40;1.65;;;;;;;;;;5034493;28;20057;-39
2023/11/13 09:25:31;;;;;;;2.28;1.15;;;;;;;;;;5034547;28;20033;-40
2023/11/13 09:27:58;;;;;;;3.22;1.30;;;;;;;;;;5034444;28;20032;-44
2023/11/13 09:30:26;;;;;;;3.30;1.25;;;;;;;;;;5032358;28;20455;-41
2023/11/13 09:32:53;;;;;;;3.67;1.20;;;;;;;;;;5046087;28;20044;-40
2023/11/13 09:35:22;;;;;;;3.20;1.73;;;;;;;;;;5047789;28;20629;-41
2023/11/13 09:37:50;;;;;;;2.80;1.20;;;;;;;;;;5043005;28;20017;-41
2023/11/13 09:40:18;;;;;;;3.38;1.20;;;;;;;;;;5044633;28;20090;-41
2023/11/13 09:42:56;;;;;;;4.70;1.33;;;;;;;;;;5043534;28;20029;-41
2023/11/13 09:45:23;;;;;;;8.10;1.50;;;;;;;;;;5043219;28;20405;-40
2023/11/13 09:47:54;;;;;;;2.80;1.20;;;;;;;;;;5037371;28;20030;-41
2023/11/13 09:50:21;;;;;;;4.47;1.27;;;;;;;;;;5051350;28;20479;-41
2023/11/13 09:52:50;;;;;;;5.65;1.48;;;;;;;;;;5052946;28;20522;-42
2023/11/13 09:55:20;;;;;;;5.88;1.25;;;;;;;;;;5053241;28;20473;-40
2023/11/13 09:57:53;;;;;;;2.78;1.05;;;;;;;;;;5053139;28;20505;-39
2023/11/13 10:00:23;;;;;;;4.65;1.30;;;;;;;;;;5048947;28;20104;-40
2023/11/13 10:02:51;;;;;;;4.82;1.50;;;;;;;;;;5051988;28;20033;-40
2023/11/13 10:05:19;;;;;;;4.22;1.30;;;;;;;;;;5052252;28;20053;-40
2023/11/13 10:07:47;;;;;;;4.63;1.35;;;;;;;;;;5052432;28;20067;-40
2023/11/13 10:10:23;;;;;;;4.10;1.30;;;;;;;;;;5052530;28;20124;-40
2023/11/13 10:12:51;;;;;;;4.32;1.42;;;;;;;;;;5052737;28;20053;-40
2023/11/13 10:15:24;;;;;;;3.63;1.38;;;;;;;;;;5052511;28;20048;-40
2023/11/13 10:17:52;;;;;;;7.75;1.58;;;;;;;;;;5052688;28;20032;-40
2023/11/13 10:20:20;;;;;;;6.68;1.55;;;;;;;;;;5049773;28;20048;-40
2023/11/13 10:22:58;;;;;;;3.42;1.25;;;;;;;;;;5052783;28;20029;-40
2023/11/13 10:25:27;;;;;;;5.32;1.27;;;;;;;;;;5051476;28;20051;-39
2023/11/13 10:28:01;;;;;;;8.18;1.65;;;;;;;;;;5052191;28;20520;-40
2023/11/13 10:30:29;;;;;;;9.50;1.40;;;;;;;;;;5050088;28;20033;-41
2023/11/13 10:32:58;;;;;;;3.47;1.27;;;;;;;;;;5052943;28;20048;-40
2023/11/13 10:35:39;;;;;;;6.20;1.10;;;;;;;;;;5039842;28;20131;-40
2023/11/13 10:38:08;;;;;;;10.43;1.65;;;;;;;;;;5032665;28;20029;-40
2023/11/13 10:40:39;;;;;;;7.07;1.63;;;;;;;;;;5035022;28;20029;-40
2023/11/13 10:43:07;;;;;;;6.72;1.27;;;;;;;;;;5052976;28;20029;-40
2023/11/13 10:45:34;;;;;;;5.93;1.48;;;;;;;;;;5051954;28;20036;-40
2023/11/13 10:48:01;;;;;;;6.45;1.30;;;;;;;;;;5051491;28;20033;-40
2023/11/13 10:50:29;;;;;;;5.03;1.25;;;;;;;;;;5033667;28;20036;-40
2023/11/13 10:52:59;;;;;;;8.73;2.25;;;;;;;;;;5041527;28;20033;-40
2023/11/13 10:55:27;;;;;;;6.95;1.15;;;;;;;;;;5032270;28;20055;-41
2023/11/13 10:57:54;;;;;;;6.35;1.70;;;;;;;;;;5032651;28;20025;-40
2023/11/13 11:00:21;;;;;;;5.43;1.35;;;;;;;;;;5034143;28;20087;-40
2023/11/13 11:02:53;;;;;;;6.95;1.52;;;;;;;;;;5050613;28;20040;-40
2023/11/13 11:05:23;;;;;;;9.02;1.42;;;;;;;;;;5050959;28;20135;-41
2023/11/13 11:07:54;;;;;;;5.60;1.30;;;;;;;;;;5051609;28;20031;-40
2023/11/13 11:10:26;;;;;;;6.18;1.30;;;;;;;;;;5049640;28;20509;-41
2023/11/13 11:12:53;;;;;;;4.55;1.27;;;;;;;;;;5051871;28;20032;-41
2023/11/13 11:15:26;;;;;;;4.50;1.38;;;;;;;;;;5050331;28;20044;-40
2023/11/13 11:17:57;;;;;;;5.22;1.52;;;;;;;;;;5051802;28;20033;-39
2023/11/13 11:20:31;;;;;;;5.43;1.40;;;;;;;;;;5052062;28;20045;-41
2023/11/13 11:23:00;;;;;;;13.00;2.00;;;;;;;;;;5051703;28;20451;-41
2023/11/13 11:25:47;;;;;;;10.60;1.77;;;;;;;;;;5050257;28;20495;-40
2023/11/13 11:28:32;;;;;;;5.97;1.50;;;;;;;;;;5050322;28;20146;-40
2023/11/13 11:31:04;;;;;;;10.35;1.83;;;;;;;;;;5051211;28;20021;-40
2023/11/13 11:33:35;;;;;;;7.45;1.40;;;;;;;;;;5051309;28;20079;-41
2023/11/13 11:36:04;;;;;;;12.35;1.63;;;;;;;;;;5048632;28;20820;-41
2023/11/13 11:38:31;;;;;;;4.47;1.40;;;;;;;;;;5051304;28;20156;-41
2023/11/13 11:40:59;;;;;;;7.60;1.90;;;;;;;;;;5052003;28;20025;-42
2023/11/13 11:43:35;;;;;;;8.07;1.50;;;;;;;;;;5044152;28;20037;-43
2023/11/13 11:46:06;;;;;;;9.95;1.50;;;;;;;;;;5048715;28;20045;-41
2023/11/13 11:48:36;;;;;;;8.07;1.77;;;;;;;;;;5049700;28;20033;-43
2023/11/13 11:51:03;;;;;;;9.65;1.67;;;;;;;;;;5038212;28;20483;-40
2023/11/13 11:53:30;;;;;;;6.28;1.45;;;;;;;;;;5037218;28;20026;-39
2023/11/13 11:55:58;;;;;;;10.10;1.50;;;;;;;;;;5049728;28;20040;-40
2023/11/13 11:58:25;;;;;;;8.75;1.27;;;;;;;;;;5043043;28;20034;-42
2023/11/13 12:00:52;;;;;;;5.10;1.23;;;;;;;;;;5046648;28;20029;-42
2023/11/13 12:03:19;;;;;;;8.82;1.50;;;;;;;;;;5037493;28;20441;-42
2023/11/13 12:05:46;;;;;;;6.65;1.25;;;;;;;;;;5040642;28;20073;-43
2023/11/13 12:08:13;;;;;;;8.23;1.58;;;;;;;;;;5043057;28;20094;-45
2023/11/13 12:10:42;;;;;;;11.07;1.95;;;;;;;;;;5043237;28;20030;-42
2023/11/13 12:13:09;;;;;;;7.03;1.33;;;;;;;;;;5045400;28;20606;-44
2023/11/13 12:15:36;;;;;;;7.43;1.60;;;;;;;;;;5044682;28;20048;-42
2023/11/13 12:18:06;;;;;;;6.82;1.50;;;;;;;;;;5049577;28;20028;-41
2023/11/13 12:20:35;;;;;;;6.97;1.52;;;;;;;;;;5048403;28;20057;-39
2023/11/13 12:23:02;;;;;;;6.60;1.45;;;;;;;;;;5042348;28;20034;-41
2023/11/13 12:25:31;;;;;;;10.43;1.67;;;;;;;;;;5046241;28;20033;-38
2023/11/13 12:27:58;;;;;;;12.57;1.30;;;;;;;;;;5047450;28;20386;-37
2023/11/13 12:30:26;;;;;;;7.95;1.55;;;;;;;;;;5046595;28;20421;-37
2023/11/13 12:32:53;;;;;;;12.98;1.40;;;;;;;;;;5042295;28;20484;-37
2023/11/13 12:35:22;;;;;;;10.75;1.65;;;;;;;;;;5047747;28;20082;-37
2023/11/13 12:37:50;;;;;;;11.73;1.48;;;;;;;;;;5049336;28;20043;-37
2023/11/13 12:40:18;;;;;;;7.10;1.23;;;;;;;;;;5051127;28;20040;-35
2023/11/13 12:42:45;;;;;;;7.65;1.23;;;;;;;;;;5051061;28;20029;-35
2023/11/13 12:45:12;;;;;;;3.88;1.20;;;;;;;;;;5051860;28;20125;-37
2023/11/13 12:47:44;;;;;;;7.68;1.23;;;;;;;;;;5051023;28;20047;-36
2023/11/13 12:50:15;;;;;;;6.38;1.13;;;;;;;;;;5051972;28;20086;-38
2023/11/13 12:52:46;;;;;;;6.07;1.33;;;;;;;;;;5049035;28;20507;-40
2023/11/13 12:55:21;;;;;;;5.40;1.10;;;;;;;;;;5049076;28;20045;-40
2023/11/13 12:57:49;;;;;;;7.25;1.40;;;;;;;;;;5051132;28;20064;-38
2023/11/13 13:00:16;;;;;;;3.35;1.05;;;;;;;;;;5051847;28;20113;-37
2023/11/13 13:02:49;;;;;;;6.63;1.10;;;;;;;;;;5045702;28;20029;-38
2023/11/13 13:05:17;;;;;;;7.78;1.42;;;;;;;;;;5051222;28;20052;-35
2023/11/13 13:07:44;;;;;;;7.28;1.55;;;;;;;;;;5053477;28;20025;-39
2023/11/13 13:10:14;;;;;;;19.40;1.75;;;;;;;;;;5054286;28;20033;-40
2023/11/13 13:12:42;;;;;;;13.15;2.15;;;;;;;;;;5052983;28;20033;-40
2023/11/13 13:15:16;;;;;;;8.80;1.70;;;;;;;;;;5054049;28;20029;-37
2023/11/13 13:17:45;;;;;;;11.45;1.45;;;;;;;;;;5054272;28;20049;-38
2023/11/13 13:20:23;;;;;;;11.73;1.65;;;;;;;;;;5054110;28;20108;-42
2023/11/13 13:22:51;;;;;;;8.82;1.70;;;;;;;;;;5052285;28;20033;-38
2023/11/13 13:25:25;;;;;;;11.00;1.60;;;;;;;;;;5054352;28;20547;-42
2023/11/13 13:27:52;;;;;;;13.63;1.50;;;;;;;;;;5053770;28;20036;-42
2023/11/13 13:30:21;;;;;;;15.75;1.70;;;;;;;;;;5054350;28;20110;-40
2023/11/13 13:32:50;;;;;;;5.40;1.10;;;;;;;;;;5053814;28;20043;-39
2023/11/13 13:35:18;;;;;;;7.07;1.20;;;;;;;;;;5052785;28;20037;-39
2023/11/13 13:37:45;;;;;;;9.90;1.17;;;;;;;;;;5053948;28;20051;-39
2023/11/13 13:40:13;;;;;;;7.57;1.20;;;;;;;;;;5054220;28;20105;-38
2023/11/13 13:42:42;;;;;;;4.72;1.20;;;;;;;;;;5053885;28;20033;-39
2023/11/13 13:45:18;;;;;;;5.60;1.15;;;;;;;;;;5052514;28;20064;-34
2023/11/13 13:47:46;;;;;;;6.22;1.52;;;;;;;;;;5053677;28;20518;-38
2023/11/13 13:50:16;;;;;;;7.13;1.00;;;;;;;;;;5051891;28;20479;-36
2023/11/13 13:52:46;;;;;;;4.85;0.82;;;;;;;;;;5053722;28;20471;-38
2023/11/13 13:55:15;;;;;;;8.55;1.15;;;;;;;;;;5051867;28;20032;-38
2023/11/13 13:57:46;;;;;;;6.95;1.42;;;;;;;;;;5053534;28;20033;-39
2023/11/13 14:00:23;;;;;;;7.38;1.02;;;;;;;;;;5053430;28;20037;-39
2023/11/13 14:02:51;;;;;;;6.03;1.15;;;;;;;;;;5052929;28;20136;-41
2023/11/13 14:05:18;;;;;;;6.55;1.00;;;;;;;;;;5051918;28;20084;-39
2023/11/13 14:07:47;;;;;;;3.10;0.80;;;;;;;;;;5035617;28;20805;-36
2023/11/13 14:10:14;;;;;;;4.13;1.00;;;;;;;;;;5053104;28;20037;-43
2023/11/13 14:12:41;;;;;;;3.45;1.13;;;;;;;;;;5053364;28;20041;-38
2023/11/13 14:15:10;;;;;;;7.10;1.20;;;;;;;;;;5053071;28;20025;-36
2023/11/13 14:17:41;;;;;;;6.75;0.88;;;;;;;;;;5051886;28;20103;-36
2023/11/13 14:20:17;;;;;;;3.75;0.90;;;;;;;;;;5053391;28;20043;-36
2023/11/13 14:22:48;;;;;;;3.88;0.90;;;;;;;;;;5052857;28;20025;-38
2023/11/13 14:25:20;;;;;;;5.70;0.90;;;;;;;;;;5053361;28;20718;-35
2023/11/13 14:27:53;;;;;;;7.22;1.30;;;;;;;;;;5050919;28;20040;-35
2023/11/13 14:30:29;;;;;;;4.00;1.10;;;;;;;;;;5050038;28;20030;-37
2023/11/13 14:33:03;;;;;;;4.40;0.98;;;;;;;;;;5052335;28;20089;-36
2023/11/13 14:35:32;;;;;;;2.85;0.80;;;;;;;;;;5050380;28;20120;-34
2023/11/13 14:37:59;;;;;;;4.45;0.75;;;;;;;;;;5050625;28;20040;-35
2023/11/13 14:40:26;;;;;;;2.17;0.85;;;;;;;;;;5049575;28;20025;-35
2023/11/13 14:42:56;;;;;;;3.33;0.95;;;;;;;;;;5052342;28;20033;-34
2023/11/13 14:45:24;;;;;;;2.90;0.70;;;;;;;;;;5034202;28;20368;-35
2023/11/13 14:47:52;;;;;;;3.50;1.05;;;;;;;;;;5050492;28;20025;-34
2023/11/13 14:50:23;;;;;;;6.82;1.02;;;;;;;;;;5052186;28;20395;-35
2023/11/13 14:52:52;;;;;;;5.28;1.15;;;;;;;;;;5049952;28;20039;-34
2023/11/13 14:55:21;;;;;;;4.55;1.08;;;;;;;;;;5052073;28;20033;-36
2023/11/13 14:57:49;;;;;;;3.70;1.05;;;;;;;;;;5048550;28;20033;-34
2023/11/13 15:00:19;;;;;;;3.80;1.20;;;;;;;;;;5033097;28;20060;-35